sensor_id;sensor_type;location;lat;lon;timestamp;pressure;altitude;pressure_sealevel;temperature;humidity
75536;BME280;64119;52.070;20.804;2023-08-07T00:02:24;98791.36;;;14.87;93.30
75536;BME280;64119;52.070;20.804;2023-08-07T00:04:52;98788.95;;;14.85;93.18
75536;BME280;64119;52.070;20.804;2023-08-07T00:07:20;98790.39;;;14.84;95.59
75536;BME280;64119;52.070;20.804;2023-08-07T00:09:48;98795.25;;;14.85;93.61
75536;BME280;64119;52.070;20.804;2023-08-07T00:12:16;98796.84;;;14.85;93.74
75536;BME280;64119;52.070;20.804;2023-08-07T00:14:44;98798.52;;;14.81;95.90
75536;BME280;64119;52.070;20.804;2023-08-07T00:17:14;98803.80;;;14.80;94.44
75536;BME280;64119;52.070;20.804;2023-08-07T00:19:42;98810.64;;;14.80;94.22
75536;BME280;64119;52.070;20.804;2023-08-07T00:22:10;98815.17;;;14.80;94.50
75536;BME280;64119;52.070;20.804;2023-08-07T00:24:38;98814.85;;;14.79;94.43
75536;BME280;64119;52.070;20.804;2023-08-07T00:27:06;98814.02;;;14.78;94.29
75536;BME280;64119;52.070;20.804;2023-08-07T00:29:37;98808.09;;;14.78;93.92
75536;BME280;64119;52.070;20.804;2023-08-07T00:32:05;98811.48;;;14.79;93.79
75536;BME280;64119;52.070;20.804;2023-08-07T00:34:34;98801.07;;;14.79;93.58
75536;BME280;64119;52.070;20.804;2023-08-07T00:37:01;98803.23;;;14.78;94.80
75536;BME280;64119;52.070;20.804;2023-08-07T00:39:29;98799.07;;;14.77;93.41
75536;BME280;64119;52.070;20.804;2023-08-07T00:41:57;98801.79;;;14.77;93.65
75536;BME280;64119;52.070;20.804;2023-08-07T00:44:25;98810.06;;;14.76;93.78
75536;BME280;64119;52.070;20.804;2023-08-07T00:46:53;98811.48;;;14.74;94.08
75536;BME280;64119;52.070;20.804;2023-08-07T00:49:22;98804.36;;;14.73;94.37
75536;BME280;64119;52.070;20.804;2023-08-07T00:51:49;98797.54;;;14.73;93.75
75536;BME280;64119;52.070;20.804;2023-08-07T00:54:18;98793.38;;;14.74;94.38
75536;BME280;64119;52.070;20.804;2023-08-07T00:56:47;98787.87;;;14.73;93.85
75536;BME280;64119;52.070;20.804;2023-08-07T00:59:15;98789.20;;;14.72;94.37
75536;BME280;64119;52.070;20.804;2023-08-07T01:01:44;98790.91;;;14.71;94.13
75536;BME280;64119;52.070;20.804;2023-08-07T01:04:12;98787.95;;;14.69;94.00
75536;BME280;64119;52.070;20.804;2023-08-07T01:06:40;98780.83;;;14.67;94.95
75536;BME280;64119;52.070;20.804;2023-08-07T01:09:08;98779.79;;;14.66;94.58
75536;BME280;64119;52.070;20.804;2023-08-07T01:11:44;98771.46;;;14.64;95.47
75536;BME280;64119;52.070;20.804;2023-08-07T01:17:06;98769.52;;;14.61;95.29
75536;BME280;64119;52.070;20.804;2023-08-07T01:19:36;98761.80;;;14.59;94.20
75536;BME280;64119;52.070;20.804;2023-08-07T01:22:10;98763.23;;;14.58;94.16
75536;BME280;64119;52.070;20.804;2023-08-07T01:24:40;98765.40;;;14.55;94.33
75536;BME280;64119;52.070;20.804;2023-08-07T01:35:12;98770.80;;;14.45;94.46
75536;BME280;64119;52.070;20.804;2023-08-07T01:37:42;98772.41;;;14.46;94.99
75536;BME280;64119;52.070;20.804;2023-08-07T01:40:12;98778.72;;;14.47;94.85
75536;BME280;64119;52.070;20.804;2023-08-07T01:42:41;98776.42;;;14.47;95.18
75536;BME280;64119;52.070;20.804;2023-08-07T01:45:10;98781.92;;;14.47;94.60
75536;BME280;64119;52.070;20.804;2023-08-07T01:47:37;98788.87;;;14.48;94.89
75536;BME280;64119;52.070;20.804;2023-08-07T01:50:06;98796.23;;;14.48;94.44
75536;BME280;64119;52.070;20.804;2023-08-07T01:52:34;98808.48;;;14.46;95.14
75536;BME280;64119;52.070;20.804;2023-08-07T01:55:02;98809.58;;;14.43;95.78
75536;BME280;64119;52.070;20.804;2023-08-07T01:57:30;98806.19;;;14.41;95.30
75536;BME280;64119;52.070;20.804;2023-08-07T01:59:58;98795.73;;;14.40;94.78
75536;BME280;64119;52.070;20.804;2023-08-07T02:02:26;98783.86;;;14.40;96.12
75536;BME280;64119;52.070;20.804;2023-08-07T02:04:54;98777.63;;;14.40;94.66
75536;BME280;64119;52.070;20.804;2023-08-07T02:07:22;98783.50;;;14.40;94.68
75536;BME280;64119;52.070;20.804;2023-08-07T02:09:50;98782.14;;;14.37;95.40
75536;BME280;64119;52.070;20.804;2023-08-07T02:12:17;98777.66;;;14.38;94.70
75536;BME280;64119;52.070;20.804;2023-08-07T02:14:45;98775.33;;;14.40;95.80
75536;BME280;64119;52.070;20.804;2023-08-07T02:17:13;98772.41;;;14.41;95.30
75536;BME280;64119;52.070;20.804;2023-08-07T02:19:41;98768.64;;;14.42;95.36
75536;BME280;64119;52.070;20.804;2023-08-07T02:22:09;98770.84;;;14.43;94.62
75536;BME280;64119;52.070;20.804;2023-08-07T02:24:37;98771.63;;;14.43;94.58
75536;BME280;64119;52.070;20.804;2023-08-07T02:27:06;98776.23;;;14.43;94.11
75536;BME280;64119;52.070;20.804;2023-08-07T02:29:36;98789.97;;;14.41;95.12
75536;BME280;64119;52.070;20.804;2023-08-07T02:32:04;98801.11;;;14.41;93.98
75536;BME280;64119;52.070;20.804;2023-08-07T02:34:32;98807.61;;;14.39;94.54
75536;BME280;64119;52.070;20.804;2023-08-07T02:37:00;98801.41;;;14.38;93.73
75536;BME280;64119;52.070;20.804;2023-08-07T02:39:28;98792.41;;;14.36;93.67
75536;BME280;64119;52.070;20.804;2023-08-07T02:41:56;98798.24;;;14.37;93.43
75536;BME280;64119;52.070;20.804;2023-08-07T02:44:23;98808.65;;;14.37;93.30
75536;BME280;64119;52.070;20.804;2023-08-07T02:46:51;98808.83;;;14.38;93.91
75536;BME280;64119;52.070;20.804;2023-08-07T02:49:20;98805.30;;;14.38;93.29
75536;BME280;64119;52.070;20.804;2023-08-07T02:51:48;98806.80;;;14.38;93.00
75536;BME280;64119;52.070;20.804;2023-08-07T02:54:16;98808.10;;;14.36;93.33
75536;BME280;64119;52.070;20.804;2023-08-07T02:56:43;98816.58;;;14.35;92.86
75536;BME280;64119;52.070;20.804;2023-08-07T02:59:11;98830.45;;;14.34;93.04
75536;BME280;64119;52.070;20.804;2023-08-07T03:01:39;98834.22;;;14.33;93.26
75536;BME280;64119;52.070;20.804;2023-08-07T03:04:07;98834.52;;;14.32;92.96
75536;BME280;64119;52.070;20.804;2023-08-07T03:06:34;98829.52;;;14.31;92.99
75536;BME280;64119;52.070;20.804;2023-08-07T03:09:02;98825.41;;;14.30;93.72
75536;BME280;64119;52.070;20.804;2023-08-07T03:11:31;98824.06;;;14.31;92.86
75536;BME280;64119;52.070;20.804;2023-08-07T03:13:59;98822.06;;;14.34;92.68
75536;BME280;64119;52.070;20.804;2023-08-07T03:16:26;98821.80;;;14.35;92.64
75536;BME280;64119;52.070;20.804;2023-08-07T03:18:54;98817.86;;;14.36;92.37
75536;BME280;64119;52.070;20.804;2023-08-07T03:21:22;98820.64;;;14.36;92.15
75536;BME280;64119;52.070;20.804;2023-08-07T03:23:51;98825.60;;;14.36;91.98
75536;BME280;64119;52.070;20.804;2023-08-07T03:26:19;98831.66;;;14.38;91.88
75536;BME280;64119;52.070;20.804;2023-08-07T03:28:48;98836.42;;;14.39;91.53
75536;BME280;64119;52.070;20.804;2023-08-07T03:31:16;98838.76;;;14.39;91.48
75536;BME280;64119;52.070;20.804;2023-08-07T03:33:45;98840.91;;;14.40;91.00
75536;BME280;64119;52.070;20.804;2023-08-07T03:36:14;98836.91;;;14.39;90.88
75536;BME280;64119;52.070;20.804;2023-08-07T03:38:41;98840.71;;;14.41;90.97
75536;BME280;64119;52.070;20.804;2023-08-07T03:41:10;98845.33;;;14.43;91.07
75536;BME280;64119;52.070;20.804;2023-08-07T03:43:41;98852.71;;;14.45;90.89
75536;BME280;64119;52.070;20.804;2023-08-07T03:46:10;98852.58;;;14.47;90.92
75536;BME280;64119;52.070;20.804;2023-08-07T03:48:38;98858.48;;;14.49;90.71
75536;BME280;64119;52.070;20.804;2023-08-07T03:51:07;98858.33;;;14.51;90.54
75536;BME280;64119;52.070;20.804;2023-08-07T03:53:42;98859.36;;;14.53;90.60
75536;BME280;64119;52.070;20.804;2023-08-07T03:56:10;98853.58;;;14.56;90.05
75536;BME280;64119;52.070;20.804;2023-08-07T03:58:38;98855.56;;;14.57;90.41
75536;BME280;64119;52.070;20.804;2023-08-07T04:01:07;98857.14;;;14.60;90.12
75536;BME280;64119;52.070;20.804;2023-08-07T04:03:35;98861.83;;;14.63;89.94
75536;BME280;64119;52.070;20.804;2023-08-07T04:06:04;98860.88;;;14.65;89.65
75536;BME280;64119;52.070;20.804;2023-08-07T04:08:33;98856.23;;;14.66;89.76
75536;BME280;64119;52.070;20.804;2023-08-07T04:11:05;98857.08;;;14.68;89.39
75536;BME280;64119;52.070;20.804;2023-08-07T04:13:34;98863.20;;;14.68;89.06
75536;BME280;64119;52.070;20.804;2023-08-07T04:16:02;98863.15;;;14.68;88.85
75536;BME280;64119;52.070;20.804;2023-08-07T04:18:33;98869.53;;;14.70;88.98
75536;BME280;64119;52.070;20.804;2023-08-07T04:21:02;98876.68;;;14.71;88.67
75536;BME280;64119;52.070;20.804;2023-08-07T04:23:32;98875.30;;;14.71;89.09
75536;BME280;64119;52.070;20.804;2023-08-07T04:26:00;98878.77;;;14.72;88.71
75536;BME280;64119;52.070;20.804;2023-08-07T04:28:28;98880.00;;;14.73;88.62
75536;BME280;64119;52.070;20.804;2023-08-07T04:30:56;98887.80;;;14.72;88.24
75536;BME280;64119;52.070;20.804;2023-08-07T04:33:24;98888.76;;;14.71;87.90
75536;BME280;64119;52.070;20.804;2023-08-07T04:35:52;98890.19;;;14.69;88.22
75536;BME280;64119;52.070;20.804;2023-08-07T04:38:20;98889.38;;;14.69;88.19
75536;BME280;64119;52.070;20.804;2023-08-07T04:40:49;98889.05;;;14.69;88.16
75536;BME280;64119;52.070;20.804;2023-08-07T04:43:18;98888.20;;;14.69;87.98
75536;BME280;64119;52.070;20.804;2023-08-07T04:45:48;98885.52;;;14.69;88.04
75536;BME280;64119;52.070;20.804;2023-08-07T04:48:17;98890.21;;;14.67;88.15
75536;BME280;64119;52.070;20.804;2023-08-07T04:50:45;98891.28;;;14.67;88.15
75536;BME280;64119;52.070;20.804;2023-08-07T04:53:14;98892.79;;;14.69;88.44
75536;BME280;64119;52.070;20.804;2023-08-07T04:55:44;98890.02;;;14.69;88.31
75536;BME280;64119;52.070;20.804;2023-08-07T04:58:12;98884.54;;;14.70;88.35
75536;BME280;64119;52.070;20.804;2023-08-07T05:00:40;98880.76;;;14.73;89.34
75536;BME280;64119;52.070;20.804;2023-08-07T05:03:08;98884.76;;;14.76;88.91
75536;BME280;64119;52.070;20.804;2023-08-07T05:05:36;98881.73;;;14.79;88.50
75536;BME280;64119;52.070;20.804;2023-08-07T05:08:04;98883.89;;;14.81;88.45
75536;BME280;64119;52.070;20.804;2023-08-07T05:10:32;98882.01;;;14.83;88.52
75536;BME280;64119;52.070;20.804;2023-08-07T05:13:01;98881.49;;;14.85;88.47
75536;BME280;64119;52.070;20.804;2023-08-07T05:15:29;98886.52;;;14.87;88.41
75536;BME280;64119;52.070;20.804;2023-08-07T05:17:58;98896.70;;;14.89;88.33
75536;BME280;64119;52.070;20.804;2023-08-07T05:20:26;98902.95;;;14.90;88.48
75536;BME280;64119;52.070;20.804;2023-08-07T05:22:54;98905.67;;;14.91;88.62
75536;BME280;64119;52.070;20.804;2023-08-07T05:25:23;98910.23;;;14.92;88.61
75536;BME280;64119;52.070;20.804;2023-08-07T05:27:51;98907.20;;;14.93;88.03
75536;BME280;64119;52.070;20.804;2023-08-07T05:30:19;98902.16;;;14.95;88.63
75536;BME280;64119;52.070;20.804;2023-08-07T05:32:47;98897.59;;;14.99;88.26
75536;BME280;64119;52.070;20.804;2023-08-07T05:35:16;98893.84;;;15.03;88.65
75536;BME280;64119;52.070;20.804;2023-08-07T05:37:43;98897.96;;;15.09;88.10
75536;BME280;64119;52.070;20.804;2023-08-07T05:40:11;98896.02;;;15.14;87.63
75536;BME280;64119;52.070;20.804;2023-08-07T05:42:40;98898.33;;;15.20;87.63
75536;BME280;64119;52.070;20.804;2023-08-07T05:45:09;98901.27;;;15.25;87.76
75536;BME280;64119;52.070;20.804;2023-08-07T05:47:38;98905.75;;;15.32;87.34
75536;BME280;64119;52.070;20.804;2023-08-07T05:50:06;98907.45;;;15.36;87.14
75536;BME280;64119;52.070;20.804;2023-08-07T05:52:34;98914.17;;;15.41;86.92
75536;BME280;64119;52.070;20.804;2023-08-07T05:55:06;98910.02;;;15.43;86.10
75536;BME280;64119;52.070;20.804;2023-08-07T05:57:34;98912.39;;;15.44;85.61
75536;BME280;64119;52.070;20.804;2023-08-07T06:00:03;98914.16;;;15.44;84.69
75536;BME280;64119;52.070;20.804;2023-08-07T06:02:38;98912.95;;;15.45;84.78
75536;BME280;64119;52.070;20.804;2023-08-07T06:05:06;98911.85;;;15.48;85.47
75536;BME280;64119;52.070;20.804;2023-08-07T06:07:34;98908.47;;;15.52;85.02
75536;BME280;64119;52.070;20.804;2023-08-07T06:10:02;98904.80;;;15.54;84.83
75536;BME280;64119;52.070;20.804;2023-08-07T06:12:30;98902.45;;;15.55;85.23
75536;BME280;64119;52.070;20.804;2023-08-07T06:14:58;98905.10;;;15.53;84.07
75536;BME280;64119;52.070;20.804;2023-08-07T06:17:27;98908.20;;;15.52;84.63
75536;BME280;64119;52.070;20.804;2023-08-07T06:19:55;98910.54;;;15.51;83.62
75536;BME280;64119;52.070;20.804;2023-08-07T06:22:22;98919.96;;;15.53;84.44
75536;BME280;64119;52.070;20.804;2023-08-07T06:24:50;98922.55;;;15.56;84.60
75536;BME280;64119;52.070;20.804;2023-08-07T06:27:21;98920.20;;;15.62;84.54
75536;BME280;64119;52.070;20.804;2023-08-07T06:29:48;98918.59;;;15.68;84.08
75536;BME280;64119;52.070;20.804;2023-08-07T06:32:16;98916.23;;;15.75;83.65
75536;BME280;64119;52.070;20.804;2023-08-07T06:34:45;98911.48;;;15.85;83.06
75536;BME280;64119;52.070;20.804;2023-08-07T06:37:14;98906.67;;;15.94;81.62
75536;BME280;64119;52.070;20.804;2023-08-07T06:39:41;98911.42;;;16.02;79.46
75536;BME280;64119;52.070;20.804;2023-08-07T06:42:09;98910.08;;;16.10;78.94
75536;BME280;64119;52.070;20.804;2023-08-07T06:44:37;98918.70;;;16.20;80.78
75536;BME280;64119;52.070;20.804;2023-08-07T06:47:05;98913.29;;;16.28;80.15
75536;BME280;64119;52.070;20.804;2023-08-07T06:49:34;98910.69;;;16.32;79.01
75536;BME280;64119;52.070;20.804;2023-08-07T06:52:02;98913.36;;;16.31;77.70
75536;BME280;64119;52.070;20.804;2023-08-07T06:54:30;98913.95;;;16.33;78.29
75536;BME280;64119;52.070;20.804;2023-08-07T06:56:58;98913.92;;;16.37;77.81
75536;BME280;64119;52.070;20.804;2023-08-07T06:59:26;98922.44;;;16.40;78.22
75536;BME280;64119;52.070;20.804;2023-08-07T07:01:54;98928.79;;;16.45;78.72
75536;BME280;64119;52.070;20.804;2023-08-07T07:04:22;98934.78;;;16.44;76.61
75536;BME280;64119;52.070;20.804;2023-08-07T07:06:50;98936.49;;;16.46;77.96
75536;BME280;64119;52.070;20.804;2023-08-07T07:09:18;98938.63;;;16.44;77.03
75536;BME280;64119;52.070;20.804;2023-08-07T07:11:45;98940.26;;;16.46;77.74
75536;BME280;64119;52.070;20.804;2023-08-07T07:14:13;98937.84;;;16.46;76.09
75536;BME280;64119;52.070;20.804;2023-08-07T07:16:43;98944.73;;;16.51;78.02
75536;BME280;64119;52.070;20.804;2023-08-07T07:19:11;98949.42;;;16.54;77.60
75536;BME280;64119;52.070;20.804;2023-08-07T07:21:39;98948.05;;;16.57;77.51
75536;BME280;64119;52.070;20.804;2023-08-07T07:24:06;98950.90;;;16.60;77.29
75536;BME280;64119;52.070;20.804;2023-08-07T07:26:34;98954.23;;;16.64;76.75
75536;BME280;64119;52.070;20.804;2023-08-07T07:29:02;98956.98;;;16.69;76.62
75536;BME280;64119;52.070;20.804;2023-08-07T07:31:30;98959.23;;;16.73;76.77
75536;BME280;64119;52.070;20.804;2023-08-07T07:33:58;98959.08;;;16.72;76.22
75536;BME280;64119;52.070;20.804;2023-08-07T07:36:26;98966.45;;;16.69;75.84
75536;BME280;64119;52.070;20.804;2023-08-07T07:38:53;98974.31;;;16.65;75.50
75536;BME280;64119;52.070;20.804;2023-08-07T07:41:22;98978.90;;;16.61;76.34
75536;BME280;64119;52.070;20.804;2023-08-07T07:43:50;98980.02;;;16.62;75.67
75536;BME280;64119;52.070;20.804;2023-08-07T07:46:18;98982.55;;;16.74;75.75
75536;BME280;64119;52.070;20.804;2023-08-07T07:48:46;98977.64;;;16.95;75.61
75536;BME280;64119;52.070;20.804;2023-08-07T07:51:14;98973.36;;;17.11;75.70
75536;BME280;64119;52.070;20.804;2023-08-07T07:53:41;98974.98;;;17.20;75.23
75536;BME280;64119;52.070;20.804;2023-08-07T07:56:09;98980.81;;;17.21;74.42
75536;BME280;64119;52.070;20.804;2023-08-07T07:58:37;98986.93;;;17.19;74.65
75536;BME280;64119;52.070;20.804;2023-08-07T08:01:05;98985.59;;;17.22;74.92
75536;BME280;64119;52.070;20.804;2023-08-07T08:03:33;98987.45;;;17.37;74.68
75536;BME280;64119;52.070;20.804;2023-08-07T08:06:01;98984.56;;;17.56;74.69
75536;BME280;64119;52.070;20.804;2023-08-07T08:08:29;98984.04;;;17.69;71.66
75536;BME280;64119;52.070;20.804;2023-08-07T08:10:57;98982.11;;;17.73;71.17
75536;BME280;64119;52.070;20.804;2023-08-07T08:13:28;98989.52;;;17.81;73.36
75536;BME280;64119;52.070;20.804;2023-08-07T08:15:56;98986.98;;;17.91;72.81
75536;BME280;64119;52.070;20.804;2023-08-07T08:18:24;98987.41;;;18.03;72.88
75536;BME280;64119;52.070;20.804;2023-08-07T08:20:54;98984.44;;;18.13;71.64
75536;BME280;64119;52.070;20.804;2023-08-07T08:23:21;98983.60;;;18.31;71.38
75536;BME280;64119;52.070;20.804;2023-08-07T08:25:49;98986.75;;;18.44;71.60
75536;BME280;64119;52.070;20.804;2023-08-07T08:28:18;98986.46;;;18.56;70.37
75536;BME280;64119;52.070;20.804;2023-08-07T08:30:47;98992.94;;;18.67;68.28
75536;BME280;64119;52.070;20.804;2023-08-07T08:33:15;98993.98;;;18.81;69.29
75536;BME280;64119;52.070;20.804;2023-08-07T08:35:45;98996.71;;;19.01;68.24
75536;BME280;64119;52.070;20.804;2023-08-07T08:38:12;98993.45;;;19.20;67.95
75536;BME280;64119;52.070;20.804;2023-08-07T08:40:40;98996.48;;;19.41;66.11
75536;BME280;64119;52.070;20.804;2023-08-07T08:43:09;98995.96;;;19.53;66.10
75536;BME280;64119;52.070;20.804;2023-08-07T08:45:39;99000.90;;;19.56;64.99
75536;BME280;64119;52.070;20.804;2023-08-07T08:48:11;99009.13;;;19.72;64.33
75536;BME280;64119;52.070;20.804;2023-08-07T08:50:45;99006.65;;;19.93;61.66
75536;BME280;64119;52.070;20.804;2023-08-07T08:53:13;99007.01;;;20.00;61.84
75536;BME280;64119;52.070;20.804;2023-08-07T08:55:41;99002.13;;;19.92;61.47
75536;BME280;64119;52.070;20.804;2023-08-07T08:58:15;99005.03;;;20.18;62.77
75536;BME280;64119;52.070;20.804;2023-08-07T09:00:44;98995.77;;;20.55;61.30
75536;BME280;64119;52.070;20.804;2023-08-07T09:03:13;98991.67;;;20.94;60.93
75536;BME280;64119;52.070;20.804;2023-08-07T09:05:41;98988.23;;;21.22;57.96
75536;BME280;64119;52.070;20.804;2023-08-07T09:08:10;98991.14;;;21.63;58.27
75536;BME280;64119;52.070;20.804;2023-08-07T09:10:39;98996.08;;;22.01;57.01
75536;BME280;64119;52.070;20.804;2023-08-07T09:13:11;98994.98;;;22.37;56.25
75536;BME280;64119;52.070;20.804;2023-08-07T09:15:43;98999.77;;;22.57;54.38
75536;BME280;64119;52.070;20.804;2023-08-07T09:18:18;99007.43;;;22.89;54.07
75536;BME280;64119;52.070;20.804;2023-08-07T09:20:49;99008.85;;;23.11;53.48
75536;BME280;64119;52.070;20.804;2023-08-07T09:23:17;99013.35;;;23.32;53.64
75536;BME280;64119;52.070;20.804;2023-08-07T09:25:45;99024.08;;;23.70;53.34
75536;BME280;64119;52.070;20.804;2023-08-07T09:28:13;99024.71;;;24.11;51.46
75536;BME280;64119;52.070;20.804;2023-08-07T09:30:41;99029.64;;;24.62;51.97
75536;BME280;64119;52.070;20.804;2023-08-07T09:33:11;99033.80;;;24.89;46.54
75536;BME280;64119;52.070;20.804;2023-08-07T09:35:40;99033.16;;;25.30;48.62
75536;BME280;64119;52.070;20.804;2023-08-07T09:38:08;99041.89;;;25.31;47.08
75536;BME280;64119;52.070;20.804;2023-08-07T09:40:35;99050.89;;;25.08;46.38
75536;BME280;64119;52.070;20.804;2023-08-07T09:43:03;99060.83;;;24.91;47.92
75536;BME280;64119;52.070;20.804;2023-08-07T09:45:31;99063.38;;;24.34;46.74
75536;BME280;64119;52.070;20.804;2023-08-07T09:48:03;99066.34;;;23.91;48.50
75536;BME280;64119;52.070;20.804;2023-08-07T09:50:31;99070.89;;;23.57;48.71
75536;BME280;64119;52.070;20.804;2023-08-07T09:52:59;99070.10;;;23.61;48.73
75536;BME280;64119;52.070;20.804;2023-08-07T09:55:27;99069.70;;;23.59;48.92
75536;BME280;64119;52.070;20.804;2023-08-07T09:57:55;99079.77;;;23.37;48.60
75536;BME280;64119;52.070;20.804;2023-08-07T10:00:23;99081.85;;;23.17;50.42
75536;BME280;64119;52.070;20.804;2023-08-07T10:02:51;99086.70;;;22.99;50.90
75536;BME280;64119;52.070;20.804;2023-08-07T10:05:19;99086.56;;;22.95;49.04
75536;BME280;64119;52.070;20.804;2023-08-07T10:07:48;99083.02;;;23.44;49.02
75536;BME280;64119;52.070;20.804;2023-08-07T10:10:17;99081.88;;;23.67;49.72
75536;BME280;64119;52.070;20.804;2023-08-07T10:12:44;99086.67;;;24.09;49.37
75536;BME280;64119;52.070;20.804;2023-08-07T10:15:19;99082.43;;;24.45;47.05
75536;BME280;64119;52.070;20.804;2023-08-07T10:17:47;99080.95;;;24.85;47.39
75536;BME280;64119;52.070;20.804;2023-08-07T10:20:14;99078.14;;;25.18;45.85
75536;BME280;64119;52.070;20.804;2023-08-07T10:22:43;99077.22;;;25.20;45.86
75536;BME280;64119;52.070;20.804;2023-08-07T10:25:11;99080.66;;;25.42;45.23
75536;BME280;64119;52.070;20.804;2023-08-07T10:27:41;99083.83;;;25.39;42.64
75536;BME280;64119;52.070;20.804;2023-08-07T10:30:11;99083.48;;;25.57;41.34
75536;BME280;64119;52.070;20.804;2023-08-07T10:32:43;99085.59;;;25.75;42.69
75536;BME280;64119;52.070;20.804;2023-08-07T10:35:25;99089.27;;;25.88;42.95
75536;BME280;64119;52.070;20.804;2023-08-07T10:37:53;99090.23;;;25.63;41.32
75536;BME280;64119;52.070;20.804;2023-08-07T10:40:23;99094.16;;;25.95;42.41
75536;BME280;64119;52.070;20.804;2023-08-07T10:43:13;99095.30;;;26.02;41.32
75536;BME280;64119;52.070;20.804;2023-08-07T10:45:41;99085.06;;;26.55;40.15
75536;BME280;64119;52.070;20.804;2023-08-07T10:48:13;99082.39;;;26.83;40.26
75536;BME280;64119;52.070;20.804;2023-08-07T10:50:55;99081.11;;;26.90;39.67
75536;BME280;64119;52.070;20.804;2023-08-07T10:53:37;99085.26;;;26.58;40.52
75536;BME280;64119;52.070;20.804;2023-08-07T10:56:09;99089.20;;;26.56;40.50
75536;BME280;64119;52.070;20.804;2023-08-07T10:58:38;99087.48;;;26.58;39.08
75536;BME280;64119;52.070;20.804;2023-08-07T11:01:24;99084.67;;;26.23;38.50
75536;BME280;64119;52.070;20.804;2023-08-07T11:03:59;99082.08;;;25.95;38.50
75536;BME280;64119;52.070;20.804;2023-08-07T11:06:33;99086.34;;;26.17;39.02
75536;BME280;64119;52.070;20.804;2023-08-07T11:09:03;99090.65;;;26.14;38.46
75536;BME280;64119;52.070;20.804;2023-08-07T11:11:38;99091.31;;;25.60;39.50
75536;BME280;64119;52.070;20.804;2023-08-07T11:14:10;99095.30;;;25.01;40.87
75536;BME280;64119;52.070;20.804;2023-08-07T11:16:39;99097.09;;;24.31;41.92
75536;BME280;64119;52.070;20.804;2023-08-07T11:19:07;99100.67;;;24.00;43.17
75536;BME280;64119;52.070;20.804;2023-08-07T11:21:36;99099.94;;;23.66;43.37
75536;BME280;64119;52.070;20.804;2023-08-07T11:24:05;99102.27;;;23.27;44.10
75536;BME280;64119;52.070;20.804;2023-08-07T11:26:32;99106.27;;;22.99;45.12
75536;BME280;64119;52.070;20.804;2023-08-07T11:29:00;99105.84;;;23.08;45.11
75536;BME280;64119;52.070;20.804;2023-08-07T11:31:28;99102.64;;;22.70;46.46
75536;BME280;64119;52.070;20.804;2023-08-07T11:33:57;99105.27;;;22.36;46.64
75536;BME280;64119;52.070;20.804;2023-08-07T11:36:25;99102.11;;;21.92;47.56
75536;BME280;64119;52.070;20.804;2023-08-07T11:38:53;99100.67;;;21.63;48.14
75536;BME280;64119;52.070;20.804;2023-08-07T11:41:21;99106.13;;;21.34;48.79
75536;BME280;64119;52.070;20.804;2023-08-07T11:43:48;99101.90;;;21.56;49.33
75536;BME280;64119;52.070;20.804;2023-08-07T11:46:16;99100.33;;;22.07;49.24
75536;BME280;64119;52.070;20.804;2023-08-07T11:48:44;99092.44;;;22.63;47.38
75536;BME280;64119;52.070;20.804;2023-08-07T11:51:12;99093.16;;;23.16;48.39
75536;BME280;64119;52.070;20.804;2023-08-07T11:53:41;99086.27;;;23.70;45.96
75536;BME280;64119;52.070;20.804;2023-08-07T11:56:10;99079.50;;;24.01;45.06
75536;BME280;64119;52.070;20.804;2023-08-07T11:58:39;99076.89;;;24.17;43.53
75536;BME280;64119;52.070;20.804;2023-08-07T12:01:25;99071.77;;;24.27;44.31
75536;BME280;64119;52.070;20.804;2023-08-07T12:06:38;99076.14;;;24.53;42.78
75536;BME280;64119;52.070;20.804;2023-08-07T12:09:19;99076.27;;;24.76;42.96
75536;BME280;64119;52.070;20.804;2023-08-07T12:11:47;99079.17;;;24.89;42.06
75536;BME280;64119;52.070;20.804;2023-08-07T12:14:16;99078.71;;;24.63;41.49
75536;BME280;64119;52.070;20.804;2023-08-07T12:16:44;99077.62;;;24.29;41.67
75536;BME280;64119;52.070;20.804;2023-08-07T12:19:15;99082.04;;;23.76;40.90
75536;BME280;64119;52.070;20.804;2023-08-07T12:21:44;99084.58;;;23.39;43.00
75536;BME280;64119;52.070;20.804;2023-08-07T12:24:12;99093.98;;;23.06;43.47
75536;BME280;64119;52.070;20.804;2023-08-07T12:26:40;99107.16;;;22.63;44.58
75536;BME280;64119;52.070;20.804;2023-08-07T12:29:08;99119.96;;;22.26;45.56
75536;BME280;64119;52.070;20.804;2023-08-07T12:31:36;99128.60;;;21.71;45.55
75536;BME280;64119;52.070;20.804;2023-08-07T12:34:06;99141.63;;;21.36;46.33
75536;BME280;64119;52.070;20.804;2023-08-07T12:36:38;99144.38;;;21.21;46.98
75536;BME280;64119;52.070;20.804;2023-08-07T12:39:06;99149.75;;;21.29;46.86
75536;BME280;64119;52.070;20.804;2023-08-07T12:41:34;99148.72;;;21.47;47.10
75536;BME280;64119;52.070;20.804;2023-08-07T12:44:05;99152.73;;;21.39;46.26
75536;BME280;64119;52.070;20.804;2023-08-07T12:46:33;99156.02;;;21.38;47.07
75536;BME280;64119;52.070;20.804;2023-08-07T12:49:04;99152.48;;;21.25;44.99
75536;BME280;64119;52.070;20.804;2023-08-07T12:51:32;99149.95;;;21.09;45.37
75536;BME280;64119;52.070;20.804;2023-08-07T12:53:59;99158.54;;;21.01;46.16
75536;BME280;64119;52.070;20.804;2023-08-07T12:56:28;99161.85;;;20.98;46.48
75536;BME280;64119;52.070;20.804;2023-08-07T12:58:56;99161.50;;;21.09;46.11
75536;BME280;64119;52.070;20.804;2023-08-07T13:01:24;99161.15;;;21.27;45.92
75536;BME280;64119;52.070;20.804;2023-08-07T13:03:53;99158.69;;;21.48;47.27
75536;BME280;64119;52.070;20.804;2023-08-07T13:06:21;99156.41;;;21.39;46.20
75536;BME280;64119;52.070;20.804;2023-08-07T13:08:49;99160.70;;;21.22;46.44
75536;BME280;64119;52.070;20.804;2023-08-07T13:11:18;99166.31;;;21.09;47.11
75536;BME280;64119;52.070;20.804;2023-08-07T13:13:46;99163.55;;;20.96;48.07